CAK weather

Akron Canton Regional Airport
Akron, Ohio, United States

Public forecast

Using degrees Fahrenheit for public forecast. Weather courtesy of forecast.io.

METAR (pilot weather report)

Retrieved 2019/05/24 14:51 UTC (38 minutes ago):

KCAK 241451Z 32006KT 10SM SCT250 22/11 A3015 RMK AO2 SLP203 T02170106 50004

TAF (pilot weather forecast)

Retrieved 2019/05/24 12:30 UTC (3 hours ago):

TAF KCAK 241127Z 2412/2512 00000KT P6SM FEW250 FM250200 VRB03KT P6SM SCT060 FM250600 14006KT P6SM BKN050